sensor_id;sensor_type;location;lat;lon;timestamp;P1;durP1;ratioP1;P2;durP2;ratioP2
3443;SDS011;1736;52.068;6.968;2022-10-16T00:01:05;8.20;;;3.97;;
3443;SDS011;1736;52.068;6.968;2022-10-16T00:03:32;7.50;;;3.53;;
3443;SDS011;1736;52.068;6.968;2022-10-16T00:06:00;6.40;;;3.80;;
3443;SDS011;1736;52.068;6.968;2022-10-16T00:08:27;4.80;;;3.53;;
3443;SDS011;1736;52.068;6.968;2022-10-16T00:10:58;5.30;;;4.03;;
3443;SDS011;1736;52.068;6.968;2022-10-16T00:13:26;11.07;;;5.67;;
3443;SDS011;1736;52.068;6.968;2022-10-16T00:15:55;7.60;;;4.60;;
3443;SDS011;1736;52.068;6.968;2022-10-16T00:18:22;6.03;;;4.10;;
3443;SDS011;1736;52.068;6.968;2022-10-16T00:20:49;6.93;;;4.33;;
3443;SDS011;1736;52.068;6.968;2022-10-16T00:23:15;9.20;;;4.17;;
3443;SDS011;1736;52.068;6.968;2022-10-16T00:25:42;8.47;;;4.87;;
3443;SDS011;1736;52.068;6.968;2022-10-16T00:28:08;9.47;;;4.53;;
3443;SDS011;1736;52.068;6.968;2022-10-16T00:30:38;7.10;;;5.07;;
3443;SDS011;1736;52.068;6.968;2022-10-16T00:33:05;14.27;;;5.73;;
3443;SDS011;1736;52.068;6.968;2022-10-16T00:35:31;9.83;;;6.40;;
3443;SDS011;1736;52.068;6.968;2022-10-16T00:37:58;8.00;;;6.10;;
3443;SDS011;1736;52.068;6.968;2022-10-16T00:40:24;8.33;;;6.03;;
3443;SDS011;1736;52.068;6.968;2022-10-16T00:42:51;12.40;;;7.70;;
3443;SDS011;1736;52.068;6.968;2022-10-16T00:45:17;10.27;;;6.90;;
3443;SDS011;1736;52.068;6.968;2022-10-16T00:47:52;13.20;;;7.23;;
3443;SDS011;1736;52.068;6.968;2022-10-16T00:50:22;9.80;;;7.53;;
3443;SDS011;1736;52.068;6.968;2022-10-16T00:52:52;11.57;;;7.20;;
3443;SDS011;1736;52.068;6.968;2022-10-16T00:55:20;12.20;;;7.63;;
3443;SDS011;1736;52.068;6.968;2022-10-16T00:57:47;14.67;;;8.97;;
3443;SDS011;1736;52.068;6.968;2022-10-16T01:00:16;25.80;;;8.80;;
3443;SDS011;1736;52.068;6.968;2022-10-16T01:02:52;21.73;;;7.90;;
3443;SDS011;1736;52.068;6.968;2022-10-16T01:05:20;17.07;;;8.20;;
3443;SDS011;1736;52.068;6.968;2022-10-16T01:07:49;13.40;;;8.33;;
3443;SDS011;1736;52.068;6.968;2022-10-16T01:10:27;12.37;;;8.30;;
3443;SDS011;1736;52.068;6.968;2022-10-16T01:13:01;18.27;;;7.87;;
3443;SDS011;1736;52.068;6.968;2022-10-16T01:25:39;10.90;;;7.70;;
3443;SDS011;1736;52.068;6.968;2022-10-16T01:28:23;10.60;;;8.00;;
3443;SDS011;1736;52.068;6.968;2022-10-16T01:30:57;10.57;;;6.90;;
3443;SDS011;1736;52.068;6.968;2022-10-16T01:33:35;10.50;;;7.37;;
3443;SDS011;1736;52.068;6.968;2022-10-16T01:36:07;10.10;;;7.33;;
3443;SDS011;1736;52.068;6.968;2022-10-16T01:38:38;8.80;;;7.37;;
3443;SDS011;1736;52.068;6.968;2022-10-16T01:41:07;10.67;;;7.80;;
3443;SDS011;1736;52.068;6.968;2022-10-16T01:43:38;19.37;;;8.13;;
3443;SDS011;1736;52.068;6.968;2022-10-16T01:46:07;13.00;;;7.23;;
3443;SDS011;1736;52.068;6.968;2022-10-16T01:48:35;23.53;;;7.13;;
3443;SDS011;1736;52.068;6.968;2022-10-16T01:51:04;13.70;;;7.60;;
3443;SDS011;1736;52.068;6.968;2022-10-16T01:53:32;15.60;;;7.10;;
3443;SDS011;1736;52.068;6.968;2022-10-16T01:56:00;10.60;;;7.73;;
3443;SDS011;1736;52.068;6.968;2022-10-16T01:58:29;13.80;;;7.70;;
3443;SDS011;1736;52.068;6.968;2022-10-16T02:01:02;12.80;;;7.70;;
3443;SDS011;1736;52.068;6.968;2022-10-16T02:03:33;10.93;;;7.23;;
3443;SDS011;1736;52.068;6.968;2022-10-16T02:06:02;11.20;;;7.10;;
3443;SDS011;1736;52.068;6.968;2022-10-16T02:08:29;11.10;;;7.97;;
3443;SDS011;1736;52.068;6.968;2022-10-16T02:10:57;11.07;;;7.00;;
3443;SDS011;1736;52.068;6.968;2022-10-16T02:13:26;13.50;;;7.23;;
3443;SDS011;1736;52.068;6.968;2022-10-16T02:15:57;11.90;;;7.97;;
3443;SDS011;1736;52.068;6.968;2022-10-16T02:18:25;11.10;;;6.97;;
3443;SDS011;1736;52.068;6.968;2022-10-16T02:20:57;11.53;;;6.97;;
3443;SDS011;1736;52.068;6.968;2022-10-16T02:23:30;10.90;;;7.37;;
3443;SDS011;1736;52.068;6.968;2022-10-16T02:26:03;13.20;;;6.80;;
3443;SDS011;1736;52.068;6.968;2022-10-16T02:28:36;22.23;;;7.17;;
3443;SDS011;1736;52.068;6.968;2022-10-16T02:31:06;10.00;;;6.90;;
3443;SDS011;1736;52.068;6.968;2022-10-16T02:33:38;7.87;;;6.43;;
3443;SDS011;1736;52.068;6.968;2022-10-16T02:36:08;8.80;;;6.40;;
3443;SDS011;1736;52.068;6.968;2022-10-16T02:38:35;8.77;;;6.67;;
3443;SDS011;1736;52.068;6.968;2022-10-16T02:41:03;15.03;;;8.27;;
3443;SDS011;1736;52.068;6.968;2022-10-16T02:43:30;9.73;;;5.97;;
3443;SDS011;1736;52.068;6.968;2022-10-16T02:45:58;11.20;;;6.60;;
3443;SDS011;1736;52.068;6.968;2022-10-16T02:48:24;10.57;;;6.50;;
3443;SDS011;1736;52.068;6.968;2022-10-16T02:50:52;7.43;;;5.70;;
3443;SDS011;1736;52.068;6.968;2022-10-16T02:53:19;7.17;;;6.20;;
3443;SDS011;1736;52.068;6.968;2022-10-16T02:55:45;9.60;;;6.00;;
3443;SDS011;1736;52.068;6.968;2022-10-16T02:58:12;14.20;;;6.17;;
3443;SDS011;1736;52.068;6.968;2022-10-16T03:00:38;6.50;;;5.53;;
3443;SDS011;1736;52.068;6.968;2022-10-16T03:03:05;7.70;;;4.90;;
3443;SDS011;1736;52.068;6.968;2022-10-16T03:05:31;6.03;;;5.20;;
3443;SDS011;1736;52.068;6.968;2022-10-16T03:07:59;8.00;;;4.93;;
3443;SDS011;1736;52.068;6.968;2022-10-16T03:10:26;8.20;;;5.07;;
3443;SDS011;1736;52.068;6.968;2022-10-16T03:12:53;4.87;;;4.20;;
3443;SDS011;1736;52.068;6.968;2022-10-16T03:15:19;5.40;;;4.90;;
3443;SDS011;1736;52.068;6.968;2022-10-16T03:17:46;6.70;;;4.43;;
3443;SDS011;1736;52.068;6.968;2022-10-16T03:20:12;5.00;;;4.43;;
3443;SDS011;1736;52.068;6.968;2022-10-16T03:22:39;5.83;;;4.57;;
3443;SDS011;1736;52.068;6.968;2022-10-16T03:25:07;5.30;;;4.80;;
3443;SDS011;1736;52.068;6.968;2022-10-16T03:27:34;7.57;;;4.93;;
3443;SDS011;1736;52.068;6.968;2022-10-16T03:30:00;8.30;;;4.40;;
3443;SDS011;1736;52.068;6.968;2022-10-16T03:32:27;5.13;;;4.63;;
3443;SDS011;1736;52.068;6.968;2022-10-16T03:34:53;6.77;;;4.80;;
3443;SDS011;1736;52.068;6.968;2022-10-16T03:37:21;5.47;;;4.77;;
3443;SDS011;1736;52.068;6.968;2022-10-16T03:39:48;5.07;;;4.53;;
3443;SDS011;1736;52.068;6.968;2022-10-16T03:42:15;9.23;;;4.90;;
3443;SDS011;1736;52.068;6.968;2022-10-16T03:44:42;7.83;;;5.00;;
3443;SDS011;1736;52.068;6.968;2022-10-16T03:47:08;6.97;;;4.50;;
3443;SDS011;1736;52.068;6.968;2022-10-16T03:49:35;6.40;;;4.70;;
3443;SDS011;1736;52.068;6.968;2022-10-16T03:52:01;4.83;;;4.33;;
3443;SDS011;1736;52.068;6.968;2022-10-16T03:54:34;6.17;;;4.67;;
3443;SDS011;1736;52.068;6.968;2022-10-16T03:57:16;9.20;;;4.93;;
3443;SDS011;1736;52.068;6.968;2022-10-16T03:59:42;5.20;;;4.50;;
3443;SDS011;1736;52.068;6.968;2022-10-16T04:02:09;5.40;;;4.37;;
3443;SDS011;1736;52.068;6.968;2022-10-16T04:04:35;7.97;;;4.10;;
3443;SDS011;1736;52.068;6.968;2022-10-16T04:07:02;4.60;;;4.20;;
3443;SDS011;1736;52.068;6.968;2022-10-16T04:09:29;9.43;;;4.00;;
3443;SDS011;1736;52.068;6.968;2022-10-16T04:11:55;7.43;;;3.57;;
3443;SDS011;1736;52.068;6.968;2022-10-16T04:14:23;4.63;;;4.23;;
3443;SDS011;1736;52.068;6.968;2022-10-16T04:16:50;5.40;;;3.53;;
3443;SDS011;1736;52.068;6.968;2022-10-16T04:19:16;6.73;;;4.00;;
3443;SDS011;1736;52.068;6.968;2022-10-16T04:21:43;4.77;;;3.43;;
3443;SDS011;1736;52.068;6.968;2022-10-16T04:24:10;4.77;;;3.60;;
3443;SDS011;1736;52.068;6.968;2022-10-16T04:26:37;3.83;;;3.23;;
3443;SDS011;1736;52.068;6.968;2022-10-16T04:29:04;4.40;;;3.60;;
3443;SDS011;1736;52.068;6.968;2022-10-16T04:31:32;4.60;;;3.60;;
3443;SDS011;1736;52.068;6.968;2022-10-16T04:33:59;5.40;;;3.60;;
3443;SDS011;1736;52.068;6.968;2022-10-16T04:36:25;6.83;;;3.60;;
3443;SDS011;1736;52.068;6.968;2022-10-16T04:38:52;3.87;;;3.57;;
3443;SDS011;1736;52.068;6.968;2022-10-16T04:41:18;4.50;;;3.50;;
3443;SDS011;1736;52.068;6.968;2022-10-16T04:43:45;3.47;;;3.17;;
3443;SDS011;1736;52.068;6.968;2022-10-16T04:46:11;4.60;;;4.00;;
3443;SDS011;1736;52.068;6.968;2022-10-16T04:48:39;3.73;;;3.37;;
3443;SDS011;1736;52.068;6.968;2022-10-16T04:51:06;6.27;;;4.20;;
3443;SDS011;1736;52.068;6.968;2022-10-16T04:53:32;4.63;;;3.47;;
3443;SDS011;1736;52.068;6.968;2022-10-16T04:55:59;3.83;;;3.43;;
3443;SDS011;1736;52.068;6.968;2022-10-16T04:58:25;4.17;;;3.40;;
3443;SDS011;1736;52.068;6.968;2022-10-16T05:00:52;4.93;;;3.80;;
3443;SDS011;1736;52.068;6.968;2022-10-16T05:03:19;6.30;;;3.90;;
3443;SDS011;1736;52.068;6.968;2022-10-16T05:05:47;3.97;;;3.63;;
3443;SDS011;1736;52.068;6.968;2022-10-16T05:08:14;4.20;;;3.63;;
3443;SDS011;1736;52.068;6.968;2022-10-16T05:10:42;8.93;;;3.73;;
3443;SDS011;1736;52.068;6.968;2022-10-16T05:13:09;5.27;;;3.20;;
3443;SDS011;1736;52.068;6.968;2022-10-16T05:15:36;4.67;;;3.40;;
3443;SDS011;1736;52.068;6.968;2022-10-16T05:18:03;5.40;;;3.30;;
3443;SDS011;1736;52.068;6.968;2022-10-16T05:20:29;5.83;;;3.63;;
3443;SDS011;1736;52.068;6.968;2022-10-16T05:22:57;4.80;;;3.40;;
3443;SDS011;1736;52.068;6.968;2022-10-16T05:25:24;3.77;;;3.37;;
3443;SDS011;1736;52.068;6.968;2022-10-16T05:27:50;4.83;;;4.30;;
3443;SDS011;1736;52.068;6.968;2022-10-16T05:30:17;3.60;;;3.30;;
3443;SDS011;1736;52.068;6.968;2022-10-16T05:32:46;3.63;;;3.33;;
3443;SDS011;1736;52.068;6.968;2022-10-16T05:35:13;5.20;;;3.50;;
3443;SDS011;1736;52.068;6.968;2022-10-16T05:37:39;5.20;;;3.93;;
3443;SDS011;1736;52.068;6.968;2022-10-16T05:40:08;3.60;;;3.30;;
3443;SDS011;1736;52.068;6.968;2022-10-16T05:42:35;3.63;;;3.33;;
3443;SDS011;1736;52.068;6.968;2022-10-16T05:45:02;3.60;;;3.30;;
3443;SDS011;1736;52.068;6.968;2022-10-16T05:47:29;6.37;;;3.73;;
3443;SDS011;1736;52.068;6.968;2022-10-16T05:49:56;3.10;;;2.80;;
3443;SDS011;1736;52.068;6.968;2022-10-16T05:52:22;4.50;;;3.20;;
3443;SDS011;1736;52.068;6.968;2022-10-16T05:54:49;4.40;;;3.10;;
3443;SDS011;1736;52.068;6.968;2022-10-16T05:57:17;4.33;;;3.87;;
3443;SDS011;1736;52.068;6.968;2022-10-16T05:59:43;4.63;;;3.40;;
3443;SDS011;1736;52.068;6.968;2022-10-16T06:02:11;5.40;;;3.67;;
3443;SDS011;1736;52.068;6.968;2022-10-16T06:04:39;10.53;;;3.53;;
3443;SDS011;1736;52.068;6.968;2022-10-16T06:07:06;5.97;;;3.40;;
3443;SDS011;1736;52.068;6.968;2022-10-16T06:09:32;5.20;;;3.27;;
3443;SDS011;1736;52.068;6.968;2022-10-16T06:11:59;4.60;;;3.60;;
3443;SDS011;1736;52.068;6.968;2022-10-16T06:14:27;5.00;;;3.50;;
3443;SDS011;1736;52.068;6.968;2022-10-16T06:16:53;5.47;;;3.70;;
3443;SDS011;1736;52.068;6.968;2022-10-16T06:19:20;5.63;;;3.27;;
3443;SDS011;1736;52.068;6.968;2022-10-16T06:21:54;4.43;;;3.30;;
3443;SDS011;1736;52.068;6.968;2022-10-16T06:24:23;3.97;;;3.60;;
3443;SDS011;1736;52.068;6.968;2022-10-16T06:26:49;4.13;;;3.67;;
3443;SDS011;1736;52.068;6.968;2022-10-16T06:29:16;4.50;;;3.30;;
3443;SDS011;1736;52.068;6.968;2022-10-16T06:31:43;4.50;;;3.67;;
3443;SDS011;1736;52.068;6.968;2022-10-16T06:34:10;5.23;;;3.50;;
3443;SDS011;1736;52.068;6.968;2022-10-16T06:36:37;5.00;;;3.70;;
3443;SDS011;1736;52.068;6.968;2022-10-16T06:39:04;7.40;;;3.43;;
3443;SDS011;1736;52.068;6.968;2022-10-16T06:41:32;3.70;;;3.30;;
3443;SDS011;1736;52.068;6.968;2022-10-16T06:43:59;3.60;;;2.93;;
3443;SDS011;1736;52.068;6.968;2022-10-16T06:46:25;5.13;;;3.60;;
3443;SDS011;1736;52.068;6.968;2022-10-16T06:49:01;13.50;;;4.63;;
3443;SDS011;1736;52.068;6.968;2022-10-16T06:51:27;4.73;;;3.83;;
3443;SDS011;1736;52.068;6.968;2022-10-16T06:53:55;7.73;;;3.67;;
3443;SDS011;1736;52.068;6.968;2022-10-16T06:56:23;7.90;;;4.17;;
3443;SDS011;1736;52.068;6.968;2022-10-16T06:58:51;10.60;;;3.70;;
3443;SDS011;1736;52.068;6.968;2022-10-16T07:01:19;4.53;;;3.30;;
3443;SDS011;1736;52.068;6.968;2022-10-16T07:03:46;7.93;;;3.70;;
3443;SDS011;1736;52.068;6.968;2022-10-16T07:06:16;3.90;;;3.60;;
3443;SDS011;1736;52.068;6.968;2022-10-16T07:08:45;6.20;;;3.57;;
3443;SDS011;1736;52.068;6.968;2022-10-16T07:11:13;8.27;;;4.10;;
3443;SDS011;1736;52.068;6.968;2022-10-16T07:13:41;4.27;;;3.87;;
3443;SDS011;1736;52.068;6.968;2022-10-16T07:16:09;4.17;;;3.47;;
3443;SDS011;1736;52.068;6.968;2022-10-16T07:18:37;5.50;;;3.70;;
3443;SDS011;1736;52.068;6.968;2022-10-16T07:21:05;4.17;;;3.77;;
3443;SDS011;1736;52.068;6.968;2022-10-16T07:23:34;3.77;;;3.30;;
3443;SDS011;1736;52.068;6.968;2022-10-16T07:26:01;6.67;;;3.80;;
3443;SDS011;1736;52.068;6.968;2022-10-16T07:28:28;3.73;;;3.43;;
3443;SDS011;1736;52.068;6.968;2022-10-16T07:30:59;5.20;;;3.50;;
3443;SDS011;1736;52.068;6.968;2022-10-16T07:33:27;6.40;;;3.90;;
3443;SDS011;1736;52.068;6.968;2022-10-16T07:35:54;5.53;;;3.50;;
3443;SDS011;1736;52.068;6.968;2022-10-16T07:38:21;5.67;;;3.53;;
3443;SDS011;1736;52.068;6.968;2022-10-16T07:40:55;4.70;;;3.20;;
3443;SDS011;1736;52.068;6.968;2022-10-16T07:43:22;2.93;;;2.63;;
3443;SDS011;1736;52.068;6.968;2022-10-16T07:45:49;4.70;;;2.70;;
3443;SDS011;1736;52.068;6.968;2022-10-16T07:48:16;3.67;;;2.70;;
3443;SDS011;1736;52.068;6.968;2022-10-16T07:50:44;3.47;;;3.17;;
3443;SDS011;1736;52.068;6.968;2022-10-16T07:53:11;5.80;;;3.10;;
3443;SDS011;1736;52.068;6.968;2022-10-16T07:55:38;2.70;;;2.50;;
3443;SDS011;1736;52.068;6.968;2022-10-16T07:58:06;5.60;;;2.50;;
3443;SDS011;1736;52.068;6.968;2022-10-16T08:00:33;3.93;;;2.33;;
3443;SDS011;1736;52.068;6.968;2022-10-16T08:03:00;3.30;;;2.93;;
3443;SDS011;1736;52.068;6.968;2022-10-16T08:05:26;2.77;;;2.57;;
3443;SDS011;1736;52.068;6.968;2022-10-16T08:07:53;2.90;;;2.70;;
3443;SDS011;1736;52.068;6.968;2022-10-16T08:10:20;3.90;;;2.60;;
3443;SDS011;1736;52.068;6.968;2022-10-16T08:12:49;2.90;;;2.67;;
3443;SDS011;1736;52.068;6.968;2022-10-16T08:15:17;3.03;;;2.70;;
3443;SDS011;1736;52.068;6.968;2022-10-16T08:17:44;2.93;;;2.40;;
3443;SDS011;1736;52.068;6.968;2022-10-16T08:20:10;2.47;;;2.30;;
3443;SDS011;1736;52.068;6.968;2022-10-16T08:22:37;3.60;;;2.20;;
3443;SDS011;1736;52.068;6.968;2022-10-16T08:25:04;3.47;;;3.17;;
3443;SDS011;1736;52.068;6.968;2022-10-16T08:27:31;5.00;;;2.40;;
3443;SDS011;1736;52.068;6.968;2022-10-16T08:29:57;2.90;;;2.67;;
3443;SDS011;1736;52.068;6.968;2022-10-16T08:32:25;4.73;;;2.87;;
3443;SDS011;1736;52.068;6.968;2022-10-16T08:34:51;4.30;;;2.40;;
3443;SDS011;1736;52.068;6.968;2022-10-16T08:37:18;6.53;;;2.43;;
3443;SDS011;1736;52.068;6.968;2022-10-16T08:39:44;6.73;;;2.13;;
3443;SDS011;1736;52.068;6.968;2022-10-16T08:42:14;2.60;;;2.40;;
3443;SDS011;1736;52.068;6.968;2022-10-16T08:45:01;11.00;;;2.80;;
3443;SDS011;1736;52.068;6.968;2022-10-16T08:47:52;4.87;;;2.60;;
3443;SDS011;1736;52.068;6.968;2022-10-16T08:50:27;3.63;;;2.00;;
3443;SDS011;1736;52.068;6.968;2022-10-16T08:52:56;2.30;;;2.10;;
3443;SDS011;1736;52.068;6.968;2022-10-16T08:55:28;2.13;;;2.00;;
3443;SDS011;1736;52.068;6.968;2022-10-16T08:57:58;2.70;;;2.00;;
3443;SDS011;1736;52.068;6.968;2022-10-16T09:00:25;2.63;;;2.43;;
3443;SDS011;1736;52.068;6.968;2022-10-16T09:02:55;6.93;;;2.07;;
3443;SDS011;1736;52.068;6.968;2022-10-16T09:08:22;9.37;;;2.10;;
3443;SDS011;1736;52.068;6.968;2022-10-16T09:10:57;2.70;;;2.00;;
3443;SDS011;1736;52.068;6.968;2022-10-16T09:13:28;9.27;;;2.13;;
3443;SDS011;1736;52.068;6.968;2022-10-16T09:15:59;3.27;;;2.37;;
3443;SDS011;1736;52.068;6.968;2022-10-16T09:18:39;4.70;;;2.60;;
3443;SDS011;1736;52.068;6.968;2022-10-16T09:21:13;3.53;;;2.60;;
3443;SDS011;1736;52.068;6.968;2022-10-16T09:23:42;3.83;;;2.10;;
3443;SDS011;1736;52.068;6.968;2022-10-16T09:26:09;4.90;;;2.80;;
3443;SDS011;1736;52.068;6.968;2022-10-16T09:28:38;3.63;;;2.70;;
3443;SDS011;1736;52.068;6.968;2022-10-16T09:31:05;2.80;;;2.37;;
3443;SDS011;1736;52.068;6.968;2022-10-16T09:33:33;4.87;;;2.90;;
3443;SDS011;1736;52.068;6.968;2022-10-16T09:36:03;4.23;;;3.10;;
3443;SDS011;1736;52.068;6.968;2022-10-16T09:38:32;5.73;;;3.80;;
3443;SDS011;1736;52.068;6.968;2022-10-16T09:41:01;7.73;;;5.07;;
3443;SDS011;1736;52.068;6.968;2022-10-16T09:43:32;7.40;;;4.70;;
3443;SDS011;1736;52.068;6.968;2022-10-16T09:46:05;9.00;;;5.20;;
3443;SDS011;1736;52.068;6.968;2022-10-16T09:48:35;12.53;;;5.63;;
3443;SDS011;1736;52.068;6.968;2022-10-16T09:51:05;11.53;;;6.30;;
3443;SDS011;1736;52.068;6.968;2022-10-16T09:53:43;13.83;;;6.30;;
3443;SDS011;1736;52.068;6.968;2022-10-16T09:56:11;11.27;;;6.23;;
3443;SDS011;1736;52.068;6.968;2022-10-16T09:58:49;9.10;;;6.20;;
3443;SDS011;1736;52.068;6.968;2022-10-16T10:01:17;10.80;;;5.80;;
3443;SDS011;1736;52.068;6.968;2022-10-16T10:03:43;7.40;;;5.80;;
3443;SDS011;1736;52.068;6.968;2022-10-16T10:06:17;16.80;;;5.80;;
3443;SDS011;1736;52.068;6.968;2022-10-16T10:08:54;8.00;;;5.47;;
3443;SDS011;1736;52.068;6.968;2022-10-16T10:14:16;4.93;;;3.93;;
3443;SDS011;1736;52.068;6.968;2022-10-16T10:16:44;5.80;;;4.23;;
3443;SDS011;1736;52.068;6.968;2022-10-16T10:19:13;4.93;;;3.50;;
3443;SDS011;1736;52.068;6.968;2022-10-16T10:21:42;7.43;;;4.23;;
3443;SDS011;1736;52.068;6.968;2022-10-16T10:24:10;5.67;;;4.20;;
3443;SDS011;1736;52.068;6.968;2022-10-16T10:26:38;5.77;;;3.40;;
3443;SDS011;1736;52.068;6.968;2022-10-16T10:29:07;6.00;;;3.40;;
3443;SDS011;1736;52.068;6.968;2022-10-16T10:31:38;7.73;;;3.97;;
3443;SDS011;1736;52.068;6.968;2022-10-16T10:34:16;4.23;;;3.30;;
3443;SDS011;1736;52.068;6.968;2022-10-16T10:36:53;3.30;;;2.60;;
3443;SDS011;1736;52.068;6.968;2022-10-16T10:39:27;4.47;;;3.03;;
3443;SDS011;1736;52.068;6.968;2022-10-16T10:42:07;5.10;;;2.60;;
3443;SDS011;1736;52.068;6.968;2022-10-16T10:47:44;6.27;;;3.10;;
3443;SDS011;1736;52.068;6.968;2022-10-16T10:50:20;4.03;;;2.83;;
3443;SDS011;1736;52.068;6.968;2022-10-16T10:52:56;7.20;;;3.10;;
3443;SDS011;1736;52.068;6.968;2022-10-16T10:55:31;8.00;;;3.57;;
3443;SDS011;1736;52.068;6.968;2022-10-16T10:58:12;7.60;;;3.63;;
3443;SDS011;1736;52.068;6.968;2022-10-16T11:00:50;5.67;;;2.50;;
3443;SDS011;1736;52.068;6.968;2022-10-16T11:03:35;5.37;;;2.47;;
3443;SDS011;1736;52.068;6.968;2022-10-16T11:06:15;6.73;;;2.83;;
3443;SDS011;1736;52.068;6.968;2022-10-16T11:08:51;6.33;;;2.83;;
3443;SDS011;1736;52.068;6.968;2022-10-16T11:11:24;9.00;;;2.90;;
3443;SDS011;1736;52.068;6.968;2022-10-16T11:13:57;6.83;;;2.90;;
3443;SDS011;1736;52.068;6.968;2022-10-16T11:16:30;3.53;;;2.57;;
3443;SDS011;1736;52.068;6.968;2022-10-16T11:19:02;5.63;;;2.40;;
3443;SDS011;1736;52.068;6.968;2022-10-16T11:21:37;4.50;;;2.20;;
3443;SDS011;1736;52.068;6.968;2022-10-16T11:24:12;7.40;;;2.53;;
3443;SDS011;1736;52.068;6.968;2022-10-16T11:26:45;6.90;;;2.10;;
3443;SDS011;1736;52.068;6.968;2022-10-16T11:29:16;8.07;;;2.70;;
3443;SDS011;1736;52.068;6.968;2022-10-16T11:31:47;8.77;;;2.23;;
3443;SDS011;1736;52.068;6.968;2022-10-16T11:34:21;5.77;;;2.43;;
3443;SDS011;1736;52.068;6.968;2022-10-16T11:36:53;3.40;;;2.30;;
3443;SDS011;1736;52.068;6.968;2022-10-16T11:39:26;4.10;;;2.10;;
3443;SDS011;1736;52.068;6.968;2022-10-16T11:41:55;5.53;;;2.60;;
3443;SDS011;1736;52.068;6.968;2022-10-16T11:44:32;3.83;;;2.13;;
3443;SDS011;1736;52.068;6.968;2022-10-16T11:47:07;9.47;;;3.20;;
3443;SDS011;1736;52.068;6.968;2022-10-16T11:49:39;6.13;;;2.27;;
3443;SDS011;1736;52.068;6.968;2022-10-16T11:52:07;11.80;;;2.80;;
3443;SDS011;1736;52.068;6.968;2022-10-16T11:54:44;4.17;;;2.03;;
3443;SDS011;1736;52.068;6.968;2022-10-16T11:57:15;7.03;;;2.33;;
3443;SDS011;1736;52.068;6.968;2022-10-16T11:59:46;4.83;;;2.50;;
3443;SDS011;1736;52.068;6.968;2022-10-16T12:02:25;5.03;;;2.50;;
3443;SDS011;1736;52.068;6.968;2022-10-16T12:04:59;5.73;;;2.10;;
3443;SDS011;1736;52.068;6.968;2022-10-16T12:07:38;6.60;;;2.40;;
3443;SDS011;1736;52.068;6.968;2022-10-16T12:10:17;5.23;;;2.00;;
3443;SDS011;1736;52.068;6.968;2022-10-16T12:12:52;11.30;;;2.27;;
3443;SDS011;1736;52.068;6.968;2022-10-16T12:15:20;6.77;;;2.37;;
3443;SDS011;1736;52.068;6.968;2022-10-16T12:17:49;5.57;;;2.00;;
3443;SDS011;1736;52.068;6.968;2022-10-16T12:20:21;7.40;;;1.90;;
3443;SDS011;1736;52.068;6.968;2022-10-16T12:22:54;8.83;;;1.90;;
3443;SDS011;1736;52.068;6.968;2022-10-16T12:25:24;4.77;;;1.97;;
3443;SDS011;1736;52.068;6.968;2022-10-16T12:27:54;11.63;;;2.20;;
3443;SDS011;1736;52.068;6.968;2022-10-16T12:30:23;7.17;;;2.63;;
3443;SDS011;1736;52.068;6.968;2022-10-16T12:32:54;4.23;;;2.30;;
3443;SDS011;1736;52.068;6.968;2022-10-16T12:35:22;4.77;;;1.90;;
3443;SDS011;1736;52.068;6.968;2022-10-16T12:37:51;10.27;;;3.10;;
3443;SDS011;1736;52.068;6.968;2022-10-16T12:40:27;4.57;;;1.87;;
3443;SDS011;1736;52.068;6.968;2022-10-16T12:42:57;12.77;;;2.83;;
3443;SDS011;1736;52.068;6.968;2022-10-16T12:45:26;6.30;;;2.27;;
3443;SDS011;1736;52.068;6.968;2022-10-16T12:47:56;5.43;;;2.30;;
3443;SDS011;1736;52.068;6.968;2022-10-16T12:50:24;7.70;;;2.20;;
3443;SDS011;1736;52.068;6.968;2022-10-16T12:52:56;5.93;;;2.27;;
3443;SDS011;1736;52.068;6.968;2022-10-16T12:55:23;5.27;;;2.23;;
3443;SDS011;1736;52.068;6.968;2022-10-16T12:58:00;4.20;;;2.07;;
3443;SDS011;1736;52.068;6.968;2022-10-16T13:00:41;8.40;;;1.60;;
3443;SDS011;1736;52.068;6.968;2022-10-16T13:03:24;5.77;;;2.10;;
3443;SDS011;1736;52.068;6.968;2022-10-16T13:06:14;2.50;;;1.90;;
3443;SDS011;1736;52.068;6.968;2022-10-16T13:11:49;6.07;;;2.00;;
3443;SDS011;1736;52.068;6.968;2022-10-16T13:14:25;5.17;;;2.30;;
3443;SDS011;1736;52.068;6.968;2022-10-16T13:17:03;5.77;;;2.10;;
3443;SDS011;1736;52.068;6.968;2022-10-16T13:19:38;4.87;;;2.10;;
3443;SDS011;1736;52.068;6.968;2022-10-16T13:22:12;5.77;;;1.60;;
3443;SDS011;1736;52.068;6.968;2022-10-16T13:24:48;9.10;;;2.23;;
3443;SDS011;1736;52.068;6.968;2022-10-16T13:27:25;7.80;;;1.83;;
3443;SDS011;1736;52.068;6.968;2022-10-16T13:30:02;3.53;;;1.87;;
3443;SDS011;1736;52.068;6.968;2022-10-16T13:32:37;7.67;;;1.83;;
3443;SDS011;1736;52.068;6.968;2022-10-16T13:35:15;4.83;;;1.97;;
3443;SDS011;1736;52.068;6.968;2022-10-16T13:37:45;4.97;;;2.20;;
3443;SDS011;1736;52.068;6.968;2022-10-16T13:40:14;9.80;;;1.80;;
3443;SDS011;1736;52.068;6.968;2022-10-16T13:42:45;2.90;;;2.00;;
3443;SDS011;1736;52.068;6.968;2022-10-16T13:45:18;9.47;;;2.43;;
3443;SDS011;1736;52.068;6.968;2022-10-16T13:47:46;5.40;;;2.03;;
3443;SDS011;1736;52.068;6.968;2022-10-16T13:50:13;3.63;;;1.90;;
3443;SDS011;1736;52.068;6.968;2022-10-16T13:52:41;7.30;;;2.17;;
3443;SDS011;1736;52.068;6.968;2022-10-16T13:55:10;6.13;;;1.97;;
3443;SDS011;1736;52.068;6.968;2022-10-16T13:57:37;5.33;;;2.40;;
3443;SDS011;1736;52.068;6.968;2022-10-16T14:00:18;6.97;;;2.03;;
3443;SDS011;1736;52.068;6.968;2022-10-16T14:02:45;5.10;;;2.07;;
3443;SDS011;1736;52.068;6.968;2022-10-16T14:05:21;4.17;;;2.50;;
3443;SDS011;1736;52.068;6.968;2022-10-16T14:07:48;8.73;;;1.90;;
3443;SDS011;1736;52.068;6.968;2022-10-16T14:10:20;3.00;;;1.90;;
3443;SDS011;1736;52.068;6.968;2022-10-16T14:12:56;4.50;;;1.67;;
3443;SDS011;1736;52.068;6.968;2022-10-16T14:15:26;2.80;;;1.90;;
3443;SDS011;1736;52.068;6.968;2022-10-16T14:17:52;6.57;;;1.67;;
3443;SDS011;1736;52.068;6.968;2022-10-16T14:20:20;7.40;;;2.07;;
3443;SDS011;1736;52.068;6.968;2022-10-16T14:22:57;5.13;;;2.00;;
3443;SDS011;1736;52.068;6.968;2022-10-16T14:25:27;14.73;;;3.03;;
3443;SDS011;1736;52.068;6.968;2022-10-16T14:27:58;7.90;;;1.90;;
3443;SDS011;1736;52.068;6.968;2022-10-16T14:30:28;3.07;;;1.87;;
3443;SDS011;1736;52.068;6.968;2022-10-16T14:33:00;4.73;;;1.57;;
3443;SDS011;1736;52.068;6.968;2022-10-16T14:35:29;6.27;;;1.80;;
3443;SDS011;1736;52.068;6.968;2022-10-16T14:37:57;5.63;;;1.97;;
3443;SDS011;1736;52.068;6.968;2022-10-16T14:40:26;6.60;;;1.80;;
3443;SDS011;1736;52.068;6.968;2022-10-16T14:42:54;7.27;;;2.30;;
3443;SDS011;1736;52.068;6.968;2022-10-16T14:45:21;7.40;;;2.67;;
3443;SDS011;1736;52.068;6.968;2022-10-16T14:47:52;4.80;;;1.77;;
3443;SDS011;1736;52.068;6.968;2022-10-16T14:50:21;4.53;;;1.80;;
3443;SDS011;1736;52.068;6.968;2022-10-16T14:52:48;2.80;;;1.60;;
3443;SDS011;1736;52.068;6.968;2022-10-16T14:55:15;6.37;;;1.90;;
3443;SDS011;1736;52.068;6.968;2022-10-16T14:57:42;6.00;;;1.83;;
3443;SDS011;1736;52.068;6.968;2022-10-16T15:00:13;7.83;;;2.00;;
3443;SDS011;1736;52.068;6.968;2022-10-16T15:02:42;4.97;;;1.90;;
3443;SDS011;1736;52.068;6.968;2022-10-16T15:05:15;6.50;;;1.97;;
3443;SDS011;1736;52.068;6.968;2022-10-16T15:07:43;3.93;;;1.63;;
3443;SDS011;1736;52.068;6.968;2022-10-16T15:10:10;6.03;;;1.83;;
3443;SDS011;1736;52.068;6.968;2022-10-16T15:12:37;3.60;;;1.50;;
3443;SDS011;1736;52.068;6.968;2022-10-16T15:15:10;3.50;;;1.90;;
3443;SDS011;1736;52.068;6.968;2022-10-16T15:17:58;3.47;;;1.87;;
3443;SDS011;1736;52.068;6.968;2022-10-16T15:20:27;2.60;;;1.70;;
3443;SDS011;1736;52.068;6.968;2022-10-16T15:22:55;5.60;;;2.10;;
3443;SDS011;1736;52.068;6.968;2022-10-16T15:25:32;6.73;;;2.23;;
3443;SDS011;1736;52.068;6.968;2022-10-16T15:28:04;3.10;;;1.80;;
3443;SDS011;1736;52.068;6.968;2022-10-16T15:30:31;4.90;;;2.07;;
3443;SDS011;1736;52.068;6.968;2022-10-16T15:32:58;6.10;;;2.53;;
3443;SDS011;1736;52.068;6.968;2022-10-16T15:35:26;3.33;;;1.70;;
3443;SDS011;1736;52.068;6.968;2022-10-16T15:37:53;6.00;;;2.00;;
3443;SDS011;1736;52.068;6.968;2022-10-16T15:40:20;2.77;;;1.90;;
3443;SDS011;1736;52.068;6.968;2022-10-16T15:42:47;6.43;;;2.30;;
3443;SDS011;1736;52.068;6.968;2022-10-16T15:45:14;2.00;;;1.80;;
3443;SDS011;1736;52.068;6.968;2022-10-16T15:47:42;4.40;;;2.37;;
3443;SDS011;1736;52.068;6.968;2022-10-16T15:50:09;5.40;;;2.13;;